Norland Park, Indiana
Current Conditions -  °F | °C
As of 8:15 PM on Saturday 20 Dec 2014 (Local Time) from KGWB Reporting Station
Overcast Overcast  
Wind Chill: 32°   Ceiling: 3000
Heat Index: 32°   Visibility: 7mi
Dew Point: 27°   Wind: 0mph
Humidity: 80%   Direction: NA
Pressure: 30.29"   Gusts: NA
Location:  41.3419°N, 85.0357°W
Report Text: KGWB 210115Z AUTO 00000KT 7SM OVC030 00/M03 A3029 RMK AO2
Loading
Personal Weather Stations






























Interactive Weather Map New forecast layout! Learn more

10-Day Weather Forecast

Advertisements
Track Severe Weather on mobile